Waltham Cross, United Kingdom
Current Conditions -  °F | °C
As of 11:50 PM on Saturday 22 Nov 2014 (Local Time) from EGLC Reporting Station
Rain Showers Rain Showers  
Wind Chill: 57°   Ceiling: 300
Heat Index: 57°   Visibility: 1.5mi
Dew Point: 55°   Wind: 2mph
Humidity: 94%   Direction: NA
Pressure: 29.97"   Gusts: NA
Location:  51.7°N, 0.05°W
Report Text: EGLC 222350Z AUTO VRB02KT 2400 -SHRA BKN003/// 14/13 Q1015 RERA
Loading
Personal Weather Stations






























Interactive Weather Map New forecast layout! Learn more

10-Day Weather Forecast

Advertisements
Track Severe Weather on mobile